sensor_id;sensor_type;location;lat;lon;timestamp;temperature;humidity
20155;DHT22;10238;49.556;10.956;2023-06-19T00:02:12;19.60;96.30
20155;DHT22;10238;49.556;10.956;2023-06-19T00:05:00;19.50;96.40
20155;DHT22;10238;49.556;10.956;2023-06-19T00:07:48;19.50;96.50
20155;DHT22;10238;49.556;10.956;2023-06-19T00:10:35;19.40;96.60
20155;DHT22;10238;49.556;10.956;2023-06-19T00:13:23;19.40;96.80
20155;DHT22;10238;49.556;10.956;2023-06-19T00:16:12;19.40;96.80
20155;DHT22;10238;49.556;10.956;2023-06-19T00:18:59;19.40;96.90
20155;DHT22;10238;49.556;10.956;2023-06-19T00:21:49;19.40;97.00
20155;DHT22;10238;49.556;10.956;2023-06-19T00:24:36;19.40;97.10
20155;DHT22;10238;49.556;10.956;2023-06-19T00:27:24;19.30;97.10
20155;DHT22;10238;49.556;10.956;2023-06-19T00:30:12;19.30;97.20
20155;DHT22;10238;49.556;10.956;2023-06-19T00:33:01;19.30;97.20
20155;DHT22;10238;49.556;10.956;2023-06-19T00:35:50;19.30;97.30
20155;DHT22;10238;49.556;10.956;2023-06-19T00:38:38;19.30;97.30
20155;DHT22;10238;49.556;10.956;2023-06-19T00:41:27;19.30;97.40
20155;DHT22;10238;49.556;10.956;2023-06-19T00:44:17;19.30;97.50
20155;DHT22;10238;49.556;10.956;2023-06-19T00:47:05;19.30;97.50
20155;DHT22;10238;49.556;10.956;2023-06-19T00:49:54;19.20;97.50
20155;DHT22;10238;49.556;10.956;2023-06-19T00:52:42;19.30;97.90
20155;DHT22;10238;49.556;10.956;2023-06-19T00:55:32;19.20;97.60
20155;DHT22;10238;49.556;10.956;2023-06-19T00:58:21;19.20;97.70
20155;DHT22;10238;49.556;10.956;2023-06-19T01:01:09;19.20;97.60
20155;DHT22;10238;49.556;10.956;2023-06-19T01:03:57;19.20;97.70
20155;DHT22;10238;49.556;10.956;2023-06-19T01:06:53;19.20;97.80
20155;DHT22;10238;49.556;10.956;2023-06-19T01:09:48;19.20;97.80
20155;DHT22;10238;49.556;10.956;2023-06-19T01:12:44;19.20;97.90
20155;DHT22;10238;49.556;10.956;2023-06-19T01:15:38;19.10;97.90
20155;DHT22;10238;49.556;10.956;2023-06-19T01:18:29;19.10;98.10
20155;DHT22;10238;49.556;10.956;2023-06-19T01:21:18;19.10;98.20
20155;DHT22;10238;49.556;10.956;2023-06-19T01:24:08;19.10;98.20
20155;DHT22;10238;49.556;10.956;2023-06-19T01:26:55;19.00;98.40
20155;DHT22;10238;49.556;10.956;2023-06-19T01:29:43;19.00;98.50
20155;DHT22;10238;49.556;10.956;2023-06-19T01:32:36;18.90;98.60
20155;DHT22;10238;49.556;10.956;2023-06-19T01:35:32;18.90;98.70
20155;DHT22;10238;49.556;10.956;2023-06-19T01:38:23;18.90;98.90
20155;DHT22;10238;49.556;10.956;2023-06-19T01:41:14;18.80;99.00
20155;DHT22;10238;49.556;10.956;2023-06-19T01:44:04;18.80;99.10
20155;DHT22;10238;49.556;10.956;2023-06-19T01:46:53;18.80;99.30
20155;DHT22;10238;49.556;10.956;2023-06-19T01:49:40;18.80;99.40
20155;DHT22;10238;49.556;10.956;2023-06-19T01:52:28;18.70;99.50
20155;DHT22;10238;49.556;10.956;2023-06-19T01:55:16;18.60;99.60
20155;DHT22;10238;49.556;10.956;2023-06-19T01:58:05;18.60;99.80
20155;DHT22;10238;49.556;10.956;2023-06-19T02:00:53;18.50;99.90
20155;DHT22;10238;49.556;10.956;2023-06-19T02:03:42;18.50;99.90
20155;DHT22;10238;49.556;10.956;2023-06-19T02:06:30;18.50;99.90
20155;DHT22;10238;49.556;10.956;2023-06-19T02:09:18;18.40;99.90
20155;DHT22;10238;49.556;10.956;2023-06-19T02:12:07;18.40;99.90
20155;DHT22;10238;49.556;10.956;2023-06-19T02:14:56;18.40;99.90
20155;DHT22;10238;49.556;10.956;2023-06-19T02:17:44;18.30;99.90
20155;DHT22;10238;49.556;10.956;2023-06-19T02:20:32;18.30;99.90
20155;DHT22;10238;49.556;10.956;2023-06-19T02:23:20;18.30;99.90
20155;DHT22;10238;49.556;10.956;2023-06-19T02:26:08;18.20;99.90
20155;DHT22;10238;49.556;10.956;2023-06-19T02:28:55;18.20;99.90
20155;DHT22;10238;49.556;10.956;2023-06-19T02:31:45;18.20;99.90
20155;DHT22;10238;49.556;10.956;2023-06-19T02:34:33;18.10;99.90
20155;DHT22;10238;49.556;10.956;2023-06-19T02:37:21;18.10;99.90
20155;DHT22;10238;49.556;10.956;2023-06-19T02:40:09;18.00;99.90
20155;DHT22;10238;49.556;10.956;2023-06-19T02:42:58;18.00;99.90
20155;DHT22;10238;49.556;10.956;2023-06-19T02:45:45;18.00;99.90
20155;DHT22;10238;49.556;10.956;2023-06-19T02:48:34;17.90;99.90
20155;DHT22;10238;49.556;10.956;2023-06-19T02:51:22;17.90;99.90
20155;DHT22;10238;49.556;10.956;2023-06-19T02:54:10;17.90;99.90
20155;DHT22;10238;49.556;10.956;2023-06-19T02:56:57;17.80;99.90
20155;DHT22;10238;49.556;10.956;2023-06-19T02:59:46;17.80;99.90
20155;DHT22;10238;49.556;10.956;2023-06-19T03:02:33;17.80;99.90
20155;DHT22;10238;49.556;10.956;2023-06-19T03:05:24;17.80;99.90
20155;DHT22;10238;49.556;10.956;2023-06-19T03:08:13;17.80;99.90
20155;DHT22;10238;49.556;10.956;2023-06-19T03:11:00;17.80;99.90
20155;DHT22;10238;49.556;10.956;2023-06-19T03:13:51;17.80;99.90
20155;DHT22;10238;49.556;10.956;2023-06-19T03:16:40;17.80;99.90
20155;DHT22;10238;49.556;10.956;2023-06-19T03:19:27;17.70;99.90
20155;DHT22;10238;49.556;10.956;2023-06-19T03:22:17;17.70;99.90
20155;DHT22;10238;49.556;10.956;2023-06-19T03:25:07;17.70;99.90
20155;DHT22;10238;49.556;10.956;2023-06-19T03:27:55;17.70;99.90
20155;DHT22;10238;49.556;10.956;2023-06-19T03:30:42;17.70;99.90
20155;DHT22;10238;49.556;10.956;2023-06-19T03:33:30;17.70;99.90
20155;DHT22;10238;49.556;10.956;2023-06-19T03:36:17;17.70;99.90
20155;DHT22;10238;49.556;10.956;2023-06-19T03:39:06;17.70;99.90
20155;DHT22;10238;49.556;10.956;2023-06-19T03:41:54;17.80;99.90
20155;DHT22;10238;49.556;10.956;2023-06-19T03:44:41;17.80;99.90
20155;DHT22;10238;49.556;10.956;2023-06-19T03:47:29;17.80;99.90
20155;DHT22;10238;49.556;10.956;2023-06-19T03:50:17;17.80;99.90
20155;DHT22;10238;49.556;10.956;2023-06-19T03:53:09;17.80;99.90
20155;DHT22;10238;49.556;10.956;2023-06-19T03:55:58;17.90;99.90
20155;DHT22;10238;49.556;10.956;2023-06-19T03:58:46;17.90;99.90
20155;DHT22;10238;49.556;10.956;2023-06-19T04:01:33;17.90;99.90
20155;DHT22;10238;49.556;10.956;2023-06-19T04:04:21;18.00;99.90
20155;DHT22;10238;49.556;10.956;2023-06-19T04:07:11;18.00;99.90
20155;DHT22;10238;49.556;10.956;2023-06-19T04:09:59;18.10;99.90
20155;DHT22;10238;49.556;10.956;2023-06-19T04:12:48;18.10;99.90
20155;DHT22;10238;49.556;10.956;2023-06-19T04:15:36;18.10;99.90
20155;DHT22;10238;49.556;10.956;2023-06-19T04:18:24;18.10;99.90
20155;DHT22;10238;49.556;10.956;2023-06-19T04:21:14;18.20;99.90
20155;DHT22;10238;49.556;10.956;2023-06-19T04:24:02;18.20;99.90
20155;DHT22;10238;49.556;10.956;2023-06-19T04:26:50;18.30;99.90
20155;DHT22;10238;49.556;10.956;2023-06-19T04:29:40;18.20;99.90
20155;DHT22;10238;49.556;10.956;2023-06-19T04:32:28;18.20;99.90
20155;DHT22;10238;49.556;10.956;2023-06-19T04:35:16;18.30;99.90
20155;DHT22;10238;49.556;10.956;2023-06-19T04:38:04;18.40;99.90
20155;DHT22;10238;49.556;10.956;2023-06-19T04:40:52;18.40;99.90
20155;DHT22;10238;49.556;10.956;2023-06-19T04:43:41;18.40;99.90
20155;DHT22;10238;49.556;10.956;2023-06-19T04:46:30;18.40;99.90
20155;DHT22;10238;49.556;10.956;2023-06-19T04:49:17;18.50;99.90
20155;DHT22;10238;49.556;10.956;2023-06-19T04:52:09;18.60;99.90
20155;DHT22;10238;49.556;10.956;2023-06-19T04:54:57;18.60;99.90
20155;DHT22;10238;49.556;10.956;2023-06-19T04:57:45;18.60;99.90
20155;DHT22;10238;49.556;10.956;2023-06-19T05:00:32;18.60;99.90
20155;DHT22;10238;49.556;10.956;2023-06-19T05:03:21;18.70;99.90
20155;DHT22;10238;49.556;10.956;2023-06-19T05:06:08;18.70;99.90
20155;DHT22;10238;49.556;10.956;2023-06-19T05:08:56;18.70;99.90
20155;DHT22;10238;49.556;10.956;2023-06-19T05:11:44;18.70;99.90
20155;DHT22;10238;49.556;10.956;2023-06-19T05:14:32;18.80;99.90
20155;DHT22;10238;49.556;10.956;2023-06-19T05:17:19;18.90;99.90
20155;DHT22;10238;49.556;10.956;2023-06-19T05:20:10;19.10;99.90
20155;DHT22;10238;49.556;10.956;2023-06-19T05:22:59;19.20;99.90
20155;DHT22;10238;49.556;10.956;2023-06-19T05:25:47;19.40;99.90
20155;DHT22;10238;49.556;10.956;2023-06-19T05:28:34;19.60;99.90
20155;DHT22;10238;49.556;10.956;2023-06-19T05:31:22;19.80;99.90
20155;DHT22;10238;49.556;10.956;2023-06-19T05:34:10;20.00;99.90
20155;DHT22;10238;49.556;10.956;2023-06-19T05:37:00;20.10;99.90
20155;DHT22;10238;49.556;10.956;2023-06-19T05:39:50;20.20;99.90
20155;DHT22;10238;49.556;10.956;2023-06-19T05:42:40;20.20;99.90
20155;DHT22;10238;49.556;10.956;2023-06-19T05:45:28;20.30;99.90
20155;DHT22;10238;49.556;10.956;2023-06-19T05:48:16;20.30;99.90
20155;DHT22;10238;49.556;10.956;2023-06-19T05:51:03;20.40;99.90
20155;DHT22;10238;49.556;10.956;2023-06-19T05:53:52;20.60;99.90
20155;DHT22;10238;49.556;10.956;2023-06-19T05:56:40;20.80;99.90
20155;DHT22;10238;49.556;10.956;2023-06-19T05:59:27;21.20;99.90
20155;DHT22;10238;49.556;10.956;2023-06-19T06:02:16;21.60;99.90
20155;DHT22;10238;49.556;10.956;2023-06-19T06:05:06;21.80;99.90
20155;DHT22;10238;49.556;10.956;2023-06-19T06:07:55;22.10;99.90
20155;DHT22;10238;49.556;10.956;2023-06-19T06:10:45;22.30;99.90
20155;DHT22;10238;49.556;10.956;2023-06-19T06:13:32;22.60;99.90
20155;DHT22;10238;49.556;10.956;2023-06-19T06:16:20;23.00;99.90
20155;DHT22;10238;49.556;10.956;2023-06-19T06:19:08;23.30;99.90
20155;DHT22;10238;49.556;10.956;2023-06-19T06:21:56;23.50;99.30
20155;DHT22;10238;49.556;10.956;2023-06-19T06:24:43;23.50;99.80
20155;DHT22;10238;49.556;10.956;2023-06-19T06:27:34;23.50;99.70
20155;DHT22;10238;49.556;10.956;2023-06-19T06:30:22;23.60;99.10
20155;DHT22;10238;49.556;10.956;2023-06-19T06:33:11;23.60;99.50
20155;DHT22;10238;49.556;10.956;2023-06-19T06:35:59;23.70;99.40
20155;DHT22;10238;49.556;10.956;2023-06-19T06:38:48;23.70;99.00
20155;DHT22;10238;49.556;10.956;2023-06-19T06:41:36;23.70;99.10
20155;DHT22;10238;49.556;10.956;2023-06-19T06:44:26;23.70;99.70
20155;DHT22;10238;49.556;10.956;2023-06-19T06:47:14;23.70;98.90
20155;DHT22;10238;49.556;10.956;2023-06-19T06:50:02;23.70;99.80
20155;DHT22;10238;49.556;10.956;2023-06-19T06:52:49;23.70;99.10
20155;DHT22;10238;49.556;10.956;2023-06-19T06:55:37;23.70;98.70
20155;DHT22;10238;49.556;10.956;2023-06-19T06:58:25;23.70;98.60
20155;DHT22;10238;49.556;10.956;2023-06-19T07:01:14;23.80;98.30
20155;DHT22;10238;49.556;10.956;2023-06-19T07:04:01;23.80;98.10
20155;DHT22;10238;49.556;10.956;2023-06-19T07:06:49;24.00;98.00
20155;DHT22;10238;49.556;10.956;2023-06-19T07:09:37;24.10;97.90
20155;DHT22;10238;49.556;10.956;2023-06-19T07:12:24;24.20;98.30
20155;DHT22;10238;49.556;10.956;2023-06-19T07:15:12;24.30;97.30
20155;DHT22;10238;49.556;10.956;2023-06-19T07:18:01;24.40;96.90
20155;DHT22;10238;49.556;10.956;2023-06-19T07:20:49;24.40;97.00
20155;DHT22;10238;49.556;10.956;2023-06-19T07:23:37;24.30;97.00
20155;DHT22;10238;49.556;10.956;2023-06-19T07:26:25;24.50;96.50
20155;DHT22;10238;49.556;10.956;2023-06-19T07:29:13;24.60;96.50
20155;DHT22;10238;49.556;10.956;2023-06-19T07:32:03;24.70;96.50
20155;DHT22;10238;49.556;10.956;2023-06-19T07:34:53;25.00;96.90
20155;DHT22;10238;49.556;10.956;2023-06-19T07:37:41;25.20;97.30
20155;DHT22;10238;49.556;10.956;2023-06-19T07:40:29;25.30;96.10
20155;DHT22;10238;49.556;10.956;2023-06-19T07:43:16;25.40;96.90
20155;DHT22;10238;49.556;10.956;2023-06-19T07:46:04;25.40;96.20
20155;DHT22;10238;49.556;10.956;2023-06-19T07:48:53;25.40;96.10
20155;DHT22;10238;49.556;10.956;2023-06-19T07:51:41;25.30;96.40
20155;DHT22;10238;49.556;10.956;2023-06-19T07:54:29;25.30;97.40
20155;DHT22;10238;49.556;10.956;2023-06-19T07:57:17;25.40;96.50
20155;DHT22;10238;49.556;10.956;2023-06-19T08:00:06;25.50;96.30
20155;DHT22;10238;49.556;10.956;2023-06-19T08:02:57;25.60;96.20
20155;DHT22;10238;49.556;10.956;2023-06-19T08:05:45;25.60;96.20
20155;DHT22;10238;49.556;10.956;2023-06-19T08:08:34;25.70;97.10
20155;DHT22;10238;49.556;10.956;2023-06-19T08:11:22;25.70;96.70
20155;DHT22;10238;49.556;10.956;2023-06-19T08:14:09;25.80;97.60
20155;DHT22;10238;49.556;10.956;2023-06-19T08:16:57;26.00;95.70
20155;DHT22;10238;49.556;10.956;2023-06-19T08:19:45;26.00;96.20
20155;DHT22;10238;49.556;10.956;2023-06-19T08:22:33;26.20;97.10
20155;DHT22;10238;49.556;10.956;2023-06-19T08:25:22;26.30;96.00
20155;DHT22;10238;49.556;10.956;2023-06-19T08:28:09;26.40;95.90
20155;DHT22;10238;49.556;10.956;2023-06-19T08:30:57;26.50;96.10
20155;DHT22;10238;49.556;10.956;2023-06-19T08:33:46;26.40;96.10
20155;DHT22;10238;49.556;10.956;2023-06-19T08:36:39;26.40;95.90
20155;DHT22;10238;49.556;10.956;2023-06-19T08:39:27;26.40;95.90
20155;DHT22;10238;49.556;10.956;2023-06-19T08:42:16;26.30;97.10
20155;DHT22;10238;49.556;10.956;2023-06-19T08:45:06;26.20;96.90
20155;DHT22;10238;49.556;10.956;2023-06-19T08:47:58;26.20;97.40
20155;DHT22;10238;49.556;10.956;2023-06-19T08:50:46;26.30;97.90
20155;DHT22;10238;49.556;10.956;2023-06-19T08:53:43;26.30;96.10
20155;DHT22;10238;49.556;10.956;2023-06-19T08:56:32;26.40;96.80
20155;DHT22;10238;49.556;10.956;2023-06-19T08:59:22;26.30;97.20
20155;DHT22;10238;49.556;10.956;2023-06-19T09:02:14;26.30;96.70
20155;DHT22;10238;49.556;10.956;2023-06-19T09:05:12;26.40;96.70
20155;DHT22;10238;49.556;10.956;2023-06-19T09:08:01;26.30;97.40
20155;DHT22;10238;49.556;10.956;2023-06-19T09:10:57;26.50;96.80
20155;DHT22;10238;49.556;10.956;2023-06-19T09:13:55;26.60;95.90
20155;DHT22;10238;49.556;10.956;2023-06-19T09:16:46;26.60;96.20
20155;DHT22;10238;49.556;10.956;2023-06-19T09:19:34;26.60;96.40
20155;DHT22;10238;49.556;10.956;2023-06-19T09:22:22;26.70;95.90
20155;DHT22;10238;49.556;10.956;2023-06-19T09:25:11;26.60;96.00
20155;DHT22;10238;49.556;10.956;2023-06-19T09:27:58;26.70;96.20
20155;DHT22;10238;49.556;10.956;2023-06-19T09:30:53;26.80;95.60
20155;DHT22;10238;49.556;10.956;2023-06-19T09:33:44;26.80;95.50
20155;DHT22;10238;49.556;10.956;2023-06-19T09:36:32;26.90;95.30
20155;DHT22;10238;49.556;10.956;2023-06-19T09:39:22;27.10;95.10
20155;DHT22;10238;49.556;10.956;2023-06-19T09:42:17;27.20;94.90
20155;DHT22;10238;49.556;10.956;2023-06-19T09:45:07;27.40;95.00
20155;DHT22;10238;49.556;10.956;2023-06-19T09:47:56;27.50;95.00
20155;DHT22;10238;49.556;10.956;2023-06-19T09:50:46;27.60;94.90
20155;DHT22;10238;49.556;10.956;2023-06-19T09:53:37;27.70;95.10
20155;DHT22;10238;49.556;10.956;2023-06-19T09:56:27;27.80;94.70
20155;DHT22;10238;49.556;10.956;2023-06-19T09:59:16;28.00;94.40
20155;DHT22;10238;49.556;10.956;2023-06-19T10:02:05;28.60;94.20
20155;DHT22;10238;49.556;10.956;2023-06-19T10:04:55;29.10;93.90
20155;DHT22;10238;49.556;10.956;2023-06-19T10:07:45;29.50;93.00
20155;DHT22;10238;49.556;10.956;2023-06-19T10:10:33;29.80;93.00
20155;DHT22;10238;49.556;10.956;2023-06-19T10:13:31;30.10;92.60
20155;DHT22;10238;49.556;10.956;2023-06-19T10:16:21;30.40;92.40
20155;DHT22;10238;49.556;10.956;2023-06-19T10:19:15;30.80;92.20
20155;DHT22;10238;49.556;10.956;2023-06-19T10:22:04;31.00;92.00
20155;DHT22;10238;49.556;10.956;2023-06-19T10:24:55;31.20;91.60
20155;DHT22;10238;49.556;10.956;2023-06-19T10:27:43;31.40;91.60
20155;DHT22;10238;49.556;10.956;2023-06-19T10:30:31;31.60;91.30
20155;DHT22;10238;49.556;10.956;2023-06-19T10:33:19;32.00;91.10
20155;DHT22;10238;49.556;10.956;2023-06-19T10:36:14;32.20;90.80
20155;DHT22;10238;49.556;10.956;2023-06-19T10:39:02;32.10;90.20
20155;DHT22;10238;49.556;10.956;2023-06-19T10:41:53;32.30;90.70
20155;DHT22;10238;49.556;10.956;2023-06-19T10:44:41;32.70;90.40
20155;DHT22;10238;49.556;10.956;2023-06-19T10:47:29;33.00;89.70
20155;DHT22;10238;49.556;10.956;2023-06-19T10:50:17;33.20;89.20
20155;DHT22;10238;49.556;10.956;2023-06-19T10:53:04;33.10;89.40
20155;DHT22;10238;49.556;10.956;2023-06-19T10:55:56;33.20;88.90
20155;DHT22;10238;49.556;10.956;2023-06-19T10:58:46;33.20;87.90
20155;DHT22;10238;49.556;10.956;2023-06-19T11:01:35;33.50;87.90
20155;DHT22;10238;49.556;10.956;2023-06-19T11:04:24;33.50;87.50
20155;DHT22;10238;49.556;10.956;2023-06-19T11:07:12;33.20;86.50
20155;DHT22;10238;49.556;10.956;2023-06-19T11:09:59;33.20;87.60
20155;DHT22;10238;49.556;10.956;2023-06-19T11:12:47;33.60;90.00
20155;DHT22;10238;49.556;10.956;2023-06-19T11:15:36;34.20;88.60
20155;DHT22;10238;49.556;10.956;2023-06-19T11:18:24;34.70;87.00
20155;DHT22;10238;49.556;10.956;2023-06-19T11:21:12;35.00;86.60
20155;DHT22;10238;49.556;10.956;2023-06-19T11:24:00;35.40;85.20
20155;DHT22;10238;49.556;10.956;2023-06-19T11:26:50;35.40;84.60
20155;DHT22;10238;49.556;10.956;2023-06-19T11:29:38;35.40;84.70
20155;DHT22;10238;49.556;10.956;2023-06-19T11:32:35;35.20;83.70
20155;DHT22;10238;49.556;10.956;2023-06-19T11:35:33;35.00;84.70
20155;DHT22;10238;49.556;10.956;2023-06-19T11:38:26;35.20;84.70
20155;DHT22;10238;49.556;10.956;2023-06-19T11:41:25;35.10;84.20
20155;DHT22;10238;49.556;10.956;2023-06-19T11:44:13;35.20;82.80
20155;DHT22;10238;49.556;10.956;2023-06-19T11:47:02;35.50;82.50
20155;DHT22;10238;49.556;10.956;2023-06-19T11:49:51;35.30;82.50
20155;DHT22;10238;49.556;10.956;2023-06-19T11:52:39;35.00;81.90
20155;DHT22;10238;49.556;10.956;2023-06-19T11:55:27;34.90;81.80
20155;DHT22;10238;49.556;10.956;2023-06-19T11:58:15;35.00;80.20
20155;DHT22;10238;49.556;10.956;2023-06-19T12:01:03;34.70;81.10
20155;DHT22;10238;49.556;10.956;2023-06-19T12:03:50;34.50;81.70
20155;DHT22;10238;49.556;10.956;2023-06-19T12:06:39;34.40;82.60
20155;DHT22;10238;49.556;10.956;2023-06-19T12:09:27;34.30;81.60
20155;DHT22;10238;49.556;10.956;2023-06-19T12:12:15;34.20;82.30
20155;DHT22;10238;49.556;10.956;2023-06-19T12:15:04;34.00;83.00
20155;DHT22;10238;49.556;10.956;2023-06-19T12:17:53;33.80;83.90
20155;DHT22;10238;49.556;10.956;2023-06-19T12:20:43;33.80;84.10
20155;DHT22;10238;49.556;10.956;2023-06-19T12:23:33;33.90;83.90
20155;DHT22;10238;49.556;10.956;2023-06-19T12:26:21;34.20;84.00
20155;DHT22;10238;49.556;10.956;2023-06-19T12:29:11;34.70;79.10
20155;DHT22;10238;49.556;10.956;2023-06-19T12:32:00;34.40;82.60
20155;DHT22;10238;49.556;10.956;2023-06-19T12:34:49;34.30;84.20
20155;DHT22;10238;49.556;10.956;2023-06-19T12:37:40;34.40;82.80
20155;DHT22;10238;49.556;10.956;2023-06-19T12:40:29;34.60;80.60
20155;DHT22;10238;49.556;10.956;2023-06-19T12:43:17;35.20;78.80
20155;DHT22;10238;49.556;10.956;2023-06-19T12:46:05;35.10;76.80
20155;DHT22;10238;49.556;10.956;2023-06-19T12:48:52;35.20;78.40
20155;DHT22;10238;49.556;10.956;2023-06-19T12:51:40;35.60;82.80
20155;DHT22;10238;49.556;10.956;2023-06-19T12:54:28;35.90;81.00
20155;DHT22;10238;49.556;10.956;2023-06-19T12:57:16;35.40;74.80
20155;DHT22;10238;49.556;10.956;2023-06-19T13:00:07;34.50;83.10
20155;DHT22;10238;49.556;10.956;2023-06-19T13:02:58;34.90;84.20
20155;DHT22;10238;49.556;10.956;2023-06-19T13:05:46;36.10;81.80
20155;DHT22;10238;49.556;10.956;2023-06-19T13:08:34;37.10;79.60
20155;DHT22;10238;49.556;10.956;2023-06-19T13:11:21;37.80;79.40
20155;DHT22;10238;49.556;10.956;2023-06-19T13:14:10;38.30;77.20
20155;DHT22;10238;49.556;10.956;2023-06-19T13:16:58;38.30;74.00
20155;DHT22;10238;49.556;10.956;2023-06-19T13:19:46;38.10;70.70
20155;DHT22;10238;49.556;10.956;2023-06-19T13:22:34;37.80;76.40
20155;DHT22;10238;49.556;10.956;2023-06-19T13:25:21;38.10;76.70
20155;DHT22;10238;49.556;10.956;2023-06-19T13:28:09;38.00;76.40
20155;DHT22;10238;49.556;10.956;2023-06-19T13:30:57;37.80;76.10
20155;DHT22;10238;49.556;10.956;2023-06-19T13:33:45;37.40;76.10
20155;DHT22;10238;49.556;10.956;2023-06-19T13:36:33;36.90;72.60
20155;DHT22;10238;49.556;10.956;2023-06-19T13:39:21;36.50;76.00
20155;DHT22;10238;49.556;10.956;2023-06-19T13:42:09;36.10;78.20
20155;DHT22;10238;49.556;10.956;2023-06-19T13:44:57;36.20;77.90
20155;DHT22;10238;49.556;10.956;2023-06-19T13:47:46;36.30;77.70
20155;DHT22;10238;49.556;10.956;2023-06-19T13:50:34;36.70;74.00
20155;DHT22;10238;49.556;10.956;2023-06-19T13:53:22;36.90;78.30
20155;DHT22;10238;49.556;10.956;2023-06-19T13:56:10;36.70;78.00
20155;DHT22;10238;49.556;10.956;2023-06-19T13:58:58;36.50;78.60
20155;DHT22;10238;49.556;10.956;2023-06-19T14:01:45;36.70;77.80
20155;DHT22;10238;49.556;10.956;2023-06-19T14:04:35;36.40;76.30
20155;DHT22;10238;49.556;10.956;2023-06-19T14:07:22;36.10;77.50
20155;DHT22;10238;49.556;10.956;2023-06-19T14:10:10;35.70;78.90
20155;DHT22;10238;49.556;10.956;2023-06-19T14:12:58;35.60;78.50
20155;DHT22;10238;49.556;10.956;2023-06-19T14:15:45;35.50;77.70
20155;DHT22;10238;49.556;10.956;2023-06-19T14:18:33;35.40;77.90
20155;DHT22;10238;49.556;10.956;2023-06-19T14:21:24;35.20;78.80
20155;DHT22;10238;49.556;10.956;2023-06-19T14:24:13;34.90;79.00
20155;DHT22;10238;49.556;10.956;2023-06-19T14:27:02;34.60;81.00
20155;DHT22;10238;49.556;10.956;2023-06-19T14:29:50;34.10;82.70
20155;DHT22;10238;49.556;10.956;2023-06-19T14:32:40;33.80;84.00
20155;DHT22;10238;49.556;10.956;2023-06-19T14:35:27;33.70;85.60
20155;DHT22;10238;49.556;10.956;2023-06-19T14:38:16;33.40;85.90
20155;DHT22;10238;49.556;10.956;2023-06-19T14:41:04;33.20;86.60
20155;DHT22;10238;49.556;10.956;2023-06-19T14:43:52;33.10;86.50
20155;DHT22;10238;49.556;10.956;2023-06-19T14:46:39;32.80;86.50
20155;DHT22;10238;49.556;10.956;2023-06-19T14:49:27;32.60;87.00
20155;DHT22;10238;49.556;10.956;2023-06-19T14:52:15;32.50;87.40
20155;DHT22;10238;49.556;10.956;2023-06-19T14:55:05;32.70;87.50
20155;DHT22;10238;49.556;10.956;2023-06-19T14:57:53;32.80;88.20
20155;DHT22;10238;49.556;10.956;2023-06-19T15:00:41;32.90;88.20
20155;DHT22;10238;49.556;10.956;2023-06-19T15:03:29;32.90;88.80
20155;DHT22;10238;49.556;10.956;2023-06-19T15:06:17;32.80;89.80
20155;DHT22;10238;49.556;10.956;2023-06-19T15:09:04;32.90;89.70
20155;DHT22;10238;49.556;10.956;2023-06-19T15:11:54;33.00;89.60
20155;DHT22;10238;49.556;10.956;2023-06-19T15:14:41;33.30;89.00
20155;DHT22;10238;49.556;10.956;2023-06-19T15:17:29;33.20;85.20
20155;DHT22;10238;49.556;10.956;2023-06-19T15:20:17;33.20;87.30
20155;DHT22;10238;49.556;10.956;2023-06-19T15:23:07;32.90;84.10
20155;DHT22;10238;49.556;10.956;2023-06-19T15:25:54;32.00;86.00
20155;DHT22;10238;49.556;10.956;2023-06-19T15:28:43;30.90;89.70
20155;DHT22;10238;49.556;10.956;2023-06-19T15:31:33;29.90;90.90
20155;DHT22;10238;49.556;10.956;2023-06-19T15:34:22;29.70;91.30
20155;DHT22;10238;49.556;10.956;2023-06-19T15:37:09;29.80;91.20
20155;DHT22;10238;49.556;10.956;2023-06-19T15:39:57;29.90;91.60
20155;DHT22;10238;49.556;10.956;2023-06-19T15:42:46;29.40;92.10
20155;DHT22;10238;49.556;10.956;2023-06-19T15:45:34;29.60;90.60
20155;DHT22;10238;49.556;10.956;2023-06-19T15:48:29;29.40;91.00
20155;DHT22;10238;49.556;10.956;2023-06-19T15:51:21;29.40;91.80
20155;DHT22;10238;49.556;10.956;2023-06-19T15:54:09;29.60;92.30
20155;DHT22;10238;49.556;10.956;2023-06-19T15:56:56;29.50;90.20
20155;DHT22;10238;49.556;10.956;2023-06-19T15:59:44;29.50;91.70
20155;DHT22;10238;49.556;10.956;2023-06-19T16:02:37;29.60;91.90
20155;DHT22;10238;49.556;10.956;2023-06-19T16:05:26;30.00;91.70
20155;DHT22;10238;49.556;10.956;2023-06-19T16:08:14;30.00;90.10
20155;DHT22;10238;49.556;10.956;2023-06-19T16:11:01;29.80;91.80
20155;DHT22;10238;49.556;10.956;2023-06-19T16:13:51;29.70;91.90
20155;DHT22;10238;49.556;10.956;2023-06-19T16:16:39;30.30;91.10
20155;DHT22;10238;49.556;10.956;2023-06-19T16:19:28;30.60;90.70
20155;DHT22;10238;49.556;10.956;2023-06-19T16:22:16;29.80;91.20
20155;DHT22;10238;49.556;10.956;2023-06-19T16:25:05;30.20;92.40
20155;DHT22;10238;49.556;10.956;2023-06-19T16:27:55;30.60;90.80
20155;DHT22;10238;49.556;10.956;2023-06-19T16:30:46;31.10;91.90
20155;DHT22;10238;49.556;10.956;2023-06-19T16:33:33;31.80;90.80
20155;DHT22;10238;49.556;10.956;2023-06-19T16:36:23;32.00;90.30
20155;DHT22;10238;49.556;10.956;2023-06-19T16:39:11;31.70;88.80
20155;DHT22;10238;49.556;10.956;2023-06-19T16:42:01;31.90;89.30
20155;DHT22;10238;49.556;10.956;2023-06-19T16:44:48;32.10;89.30
20155;DHT22;10238;49.556;10.956;2023-06-19T16:47:36;32.00;90.70
20155;DHT22;10238;49.556;10.956;2023-06-19T16:50:24;32.10;90.80
20155;DHT22;10238;49.556;10.956;2023-06-19T16:53:14;32.60;90.70
20155;DHT22;10238;49.556;10.956;2023-06-19T16:56:02;32.40;90.10
20155;DHT22;10238;49.556;10.956;2023-06-19T16:58:49;32.00;88.80
20155;DHT22;10238;49.556;10.956;2023-06-19T17:01:37;31.70;89.80
20155;DHT22;10238;49.556;10.956;2023-06-19T17:04:25;31.80;87.80
20155;DHT22;10238;49.556;10.956;2023-06-19T17:07:12;31.70;88.30
20155;DHT22;10238;49.556;10.956;2023-06-19T17:10:01;31.80;90.10
20155;DHT22;10238;49.556;10.956;2023-06-19T17:12:49;32.20;90.30
20155;DHT22;10238;49.556;10.956;2023-06-19T17:15:37;32.00;89.90
20155;DHT22;10238;49.556;10.956;2023-06-19T17:18:24;32.00;89.70
20155;DHT22;10238;49.556;10.956;2023-06-19T17:21:12;32.10;89.20
20155;DHT22;10238;49.556;10.956;2023-06-19T17:24:00;32.10;89.40
20155;DHT22;10238;49.556;10.956;2023-06-19T17:26:49;31.80;89.60
20155;DHT22;10238;49.556;10.956;2023-06-19T17:29:43;31.70;89.90